sensor_id;sensor_type;location;lat;lon;timestamp;P1;durP1;ratioP1;P2;durP2;ratioP2
48871;SDS011;36154;51.674;7.824;2024-03-02T00:02:06;0.68;;;0.30;;
48871;SDS011;36154;51.674;7.824;2024-03-02T00:04:32;0.30;;;0.30;;
48871;SDS011;36154;51.674;7.824;2024-03-02T00:06:57;0.30;;;0.30;;
48871;SDS011;36154;51.674;7.824;2024-03-02T00:09:22;0.28;;;0.28;;
48871;SDS011;36154;51.674;7.824;2024-03-02T00:11:48;0.20;;;0.20;;
48871;SDS011;36154;51.674;7.824;2024-03-02T00:14:13;0.43;;;0.43;;
48871;SDS011;36154;51.674;7.824;2024-03-02T00:16:39;0.30;;;0.30;;
48871;SDS011;36154;51.674;7.824;2024-03-02T00:19:05;0.35;;;0.35;;
48871;SDS011;36154;51.674;7.824;2024-03-02T00:21:32;0.30;;;0.30;;
48871;SDS011;36154;51.674;7.824;2024-03-02T00:23:58;0.45;;;0.30;;
48871;SDS011;36154;51.674;7.824;2024-03-02T00:26:24;0.30;;;0.30;;
48871;SDS011;36154;51.674;7.824;2024-03-02T00:28:50;0.30;;;0.30;;
48871;SDS011;36154;51.674;7.824;2024-03-02T00:31:22;0.30;;;0.30;;
48871;SDS011;36154;51.674;7.824;2024-03-02T00:33:48;0.43;;;0.43;;
48871;SDS011;36154;51.674;7.824;2024-03-02T00:36:21;0.30;;;0.30;;
48871;SDS011;36154;51.674;7.824;2024-03-02T00:38:50;0.20;;;0.20;;
48871;SDS011;36154;51.674;7.824;2024-03-02T00:41:24;0.30;;;0.30;;
48871;SDS011;36154;51.674;7.824;2024-03-02T00:46:30;0.20;;;0.20;;
48871;SDS011;36154;51.674;7.824;2024-03-02T00:49:03;0.20;;;0.20;;
48871;SDS011;36154;51.674;7.824;2024-03-02T00:51:30;0.65;;;0.40;;
48871;SDS011;36154;51.674;7.824;2024-03-02T00:54:00;0.73;;;0.47;;
48871;SDS011;36154;51.674;7.824;2024-03-02T00:56:29;0.40;;;0.30;;
48871;SDS011;36154;51.674;7.824;2024-03-02T00:58:54;0.20;;;0.20;;
48871;SDS011;36154;51.674;7.824;2024-03-02T01:01:20;0.20;;;0.20;;
48871;SDS011;36154;51.674;7.824;2024-03-02T01:03:45;0.40;;;0.20;;
48871;SDS011;36154;51.674;7.824;2024-03-02T01:06:11;0.20;;;0.20;;
48871;SDS011;36154;51.674;7.824;2024-03-02T01:08:36;0.30;;;0.30;;
48871;SDS011;36154;51.674;7.824;2024-03-02T01:11:02;0.20;;;0.20;;
48871;SDS011;36154;51.674;7.824;2024-03-02T01:13:28;0.20;;;0.20;;
48871;SDS011;36154;51.674;7.824;2024-03-02T01:15:53;0.20;;;0.20;;
48871;SDS011;36154;51.674;7.824;2024-03-02T01:18:19;0.20;;;0.20;;
48871;SDS011;36154;51.674;7.824;2024-03-02T01:20:44;0.20;;;0.20;;
48871;SDS011;36154;51.674;7.824;2024-03-02T01:23:10;0.30;;;0.30;;
48871;SDS011;36154;51.674;7.824;2024-03-02T01:25:35;0.30;;;0.30;;
48871;SDS011;36154;51.674;7.824;2024-03-02T01:28:01;0.28;;;0.28;;
48871;SDS011;36154;51.674;7.824;2024-03-02T01:30:26;0.17;;;0.17;;
48871;SDS011;36154;51.674;7.824;2024-03-02T01:32:51;0.10;;;0.10;;
48871;SDS011;36154;51.674;7.824;2024-03-02T01:35:17;0.30;;;0.30;;
48871;SDS011;36154;51.674;7.824;2024-03-02T01:37:42;0.20;;;0.20;;
48871;SDS011;36154;51.674;7.824;2024-03-02T01:40:07;0.38;;;0.38;;
48871;SDS011;36154;51.674;7.824;2024-03-02T01:42:37;0.25;;;0.25;;
48871;SDS011;36154;51.674;7.824;2024-03-02T01:45:07;0.30;;;0.30;;
48871;SDS011;36154;51.674;7.824;2024-03-02T01:47:34;0.13;;;0.13;;
48871;SDS011;36154;51.674;7.824;2024-03-02T01:50:00;0.20;;;0.20;;
48871;SDS011;36154;51.674;7.824;2024-03-02T01:52:28;0.20;;;0.20;;
48871;SDS011;36154;51.674;7.824;2024-03-02T01:54:53;0.30;;;0.30;;
48871;SDS011;36154;51.674;7.824;2024-03-02T01:57:18;0.30;;;0.30;;
48871;SDS011;36154;51.674;7.824;2024-03-02T01:59:44;0.20;;;0.20;;
48871;SDS011;36154;51.674;7.824;2024-03-02T02:02:12;0.20;;;0.20;;
48871;SDS011;36154;51.674;7.824;2024-03-02T02:04:38;0.20;;;0.20;;
48871;SDS011;36154;51.674;7.824;2024-03-02T02:07:03;0.20;;;0.20;;
48871;SDS011;36154;51.674;7.824;2024-03-02T02:09:29;0.20;;;0.20;;
48871;SDS011;36154;51.674;7.824;2024-03-02T02:11:54;0.20;;;0.20;;
48871;SDS011;36154;51.674;7.824;2024-03-02T02:14:19;0.20;;;0.20;;
48871;SDS011;36154;51.674;7.824;2024-03-02T02:16:45;0.20;;;0.20;;
48871;SDS011;36154;51.674;7.824;2024-03-02T02:19:10;0.20;;;0.20;;
48871;SDS011;36154;51.674;7.824;2024-03-02T02:21:36;0.20;;;0.20;;
48871;SDS011;36154;51.674;7.824;2024-03-02T02:24:01;0.10;;;0.10;;
48871;SDS011;36154;51.674;7.824;2024-03-02T02:26:29;0.20;;;0.20;;
48871;SDS011;36154;51.674;7.824;2024-03-02T02:28:54;0.40;;;0.15;;
48871;SDS011;36154;51.674;7.824;2024-03-02T02:31:20;0.20;;;0.20;;
48871;SDS011;36154;51.674;7.824;2024-03-02T02:33:45;1.20;;;0.20;;
48871;SDS011;36154;51.674;7.824;2024-03-02T02:36:10;0.35;;;0.35;;
48871;SDS011;36154;51.674;7.824;2024-03-02T02:38:40;0.20;;;0.20;;
48871;SDS011;36154;51.674;7.824;2024-03-02T02:41:09;0.20;;;0.20;;
48871;SDS011;36154;51.674;7.824;2024-03-02T02:43:34;0.20;;;0.20;;
48871;SDS011;36154;51.674;7.824;2024-03-02T02:45:59;0.10;;;0.10;;
48871;SDS011;36154;51.674;7.824;2024-03-02T02:48:25;0.20;;;0.20;;
48871;SDS011;36154;51.674;7.824;2024-03-02T02:50:50;0.30;;;0.30;;
48871;SDS011;36154;51.674;7.824;2024-03-02T02:53:16;0.10;;;0.10;;
48871;SDS011;36154;51.674;7.824;2024-03-02T02:55:41;0.10;;;0.10;;
48871;SDS011;36154;51.674;7.824;2024-03-02T02:58:08;0.20;;;0.20;;
48871;SDS011;36154;51.674;7.824;2024-03-02T03:00:36;0.10;;;0.10;;
48871;SDS011;36154;51.674;7.824;2024-03-02T03:03:01;0.10;;;0.10;;
48871;SDS011;36154;51.674;7.824;2024-03-02T03:05:27;0.20;;;0.20;;
48871;SDS011;36154;51.674;7.824;2024-03-02T03:07:52;0.10;;;0.10;;
48871;SDS011;36154;51.674;7.824;2024-03-02T03:10:18;0.22;;;0.22;;
48871;SDS011;36154;51.674;7.824;2024-03-02T03:12:43;0.20;;;0.20;;
48871;SDS011;36154;51.674;7.824;2024-03-02T03:15:09;0.20;;;0.20;;
48871;SDS011;36154;51.674;7.824;2024-03-02T03:17:35;0.13;;;0.13;;
48871;SDS011;36154;51.674;7.824;2024-03-02T03:20:02;0.10;;;0.10;;
48871;SDS011;36154;51.674;7.824;2024-03-02T03:22:29;0.20;;;0.20;;
48871;SDS011;36154;51.674;7.824;2024-03-02T03:24:54;0.20;;;0.20;;
48871;SDS011;36154;51.674;7.824;2024-03-02T03:27:19;0.10;;;0.10;;
48871;SDS011;36154;51.674;7.824;2024-03-02T03:29:45;0.20;;;0.20;;
48871;SDS011;36154;51.674;7.824;2024-03-02T03:32:10;0.30;;;0.30;;
48871;SDS011;36154;51.674;7.824;2024-03-02T03:34:35;0.20;;;0.20;;
48871;SDS011;36154;51.674;7.824;2024-03-02T03:37:01;0.20;;;0.20;;
48871;SDS011;36154;51.674;7.824;2024-03-02T03:39:27;0.20;;;0.20;;
48871;SDS011;36154;51.674;7.824;2024-03-02T03:41:53;0.10;;;0.10;;
48871;SDS011;36154;51.674;7.824;2024-03-02T03:44:18;0.10;;;0.10;;
48871;SDS011;36154;51.674;7.824;2024-03-02T03:46:43;0.10;;;0.10;;
48871;SDS011;36154;51.674;7.824;2024-03-02T03:49:09;0.20;;;0.20;;
48871;SDS011;36154;51.674;7.824;2024-03-02T03:51:34;0.20;;;0.20;;
48871;SDS011;36154;51.674;7.824;2024-03-02T03:54:00;0.13;;;0.13;;
48871;SDS011;36154;51.674;7.824;2024-03-02T03:56:25;0.20;;;0.20;;
48871;SDS011;36154;51.674;7.824;2024-03-02T03:58:50;0.17;;;0.17;;
48871;SDS011;36154;51.674;7.824;2024-03-02T04:01:16;0.20;;;0.20;;
48871;SDS011;36154;51.674;7.824;2024-03-02T04:03:41;0.20;;;0.20;;
48871;SDS011;36154;51.674;7.824;2024-03-02T04:06:06;0.10;;;0.10;;
48871;SDS011;36154;51.674;7.824;2024-03-02T04:08:32;0.20;;;0.20;;
48871;SDS011;36154;51.674;7.824;2024-03-02T04:10:57;0.20;;;0.20;;
48871;SDS011;36154;51.674;7.824;2024-03-02T04:13:22;0.10;;;0.10;;
48871;SDS011;36154;51.674;7.824;2024-03-02T04:15:47;0.20;;;0.20;;
48871;SDS011;36154;51.674;7.824;2024-03-02T04:18:13;0.10;;;0.10;;
48871;SDS011;36154;51.674;7.824;2024-03-02T04:20:38;0.20;;;0.20;;
48871;SDS011;36154;51.674;7.824;2024-03-02T04:23:03;0.10;;;0.10;;
48871;SDS011;36154;51.674;7.824;2024-03-02T04:25:29;0.10;;;0.10;;
48871;SDS011;36154;51.674;7.824;2024-03-02T04:27:54;0.20;;;0.20;;
48871;SDS011;36154;51.674;7.824;2024-03-02T04:30:19;0.17;;;0.17;;
48871;SDS011;36154;51.674;7.824;2024-03-02T04:32:45;0.10;;;0.10;;
48871;SDS011;36154;51.674;7.824;2024-03-02T04:35:11;0.20;;;0.20;;
48871;SDS011;36154;51.674;7.824;2024-03-02T04:37:37;0.10;;;0.10;;
48871;SDS011;36154;51.674;7.824;2024-03-02T04:40:03;0.10;;;0.10;;
48871;SDS011;36154;51.674;7.824;2024-03-02T04:42:29;0.17;;;0.17;;
48871;SDS011;36154;51.674;7.824;2024-03-02T04:44:54;0.10;;;0.10;;
48871;SDS011;36154;51.674;7.824;2024-03-02T04:47:19;0.20;;;0.20;;
48871;SDS011;36154;51.674;7.824;2024-03-02T04:49:44;0.10;;;0.10;;
48871;SDS011;36154;51.674;7.824;2024-03-02T04:52:10;0.20;;;0.20;;
48871;SDS011;36154;51.674;7.824;2024-03-02T04:54:35;0.10;;;0.10;;
48871;SDS011;36154;51.674;7.824;2024-03-02T04:57:20;0.10;;;0.10;;
48871;SDS011;36154;51.674;7.824;2024-03-02T04:59:45;0.10;;;0.10;;
48871;SDS011;36154;51.674;7.824;2024-03-02T05:02:11;0.10;;;0.10;;
48871;SDS011;36154;51.674;7.824;2024-03-02T05:04:38;0.20;;;0.20;;
48871;SDS011;36154;51.674;7.824;2024-03-02T05:07:04;0.22;;;0.22;;
48871;SDS011;36154;51.674;7.824;2024-03-02T05:09:29;0.20;;;0.20;;
48871;SDS011;36154;51.674;7.824;2024-03-02T05:11:55;0.30;;;0.30;;
48871;SDS011;36154;51.674;7.824;2024-03-02T05:14:39;0.40;;;0.15;;
48871;SDS011;36154;51.674;7.824;2024-03-02T05:17:04;0.20;;;0.20;;
48871;SDS011;36154;51.674;7.824;2024-03-02T05:19:29;0.20;;;0.20;;
48871;SDS011;36154;51.674;7.824;2024-03-02T05:21:55;0.20;;;0.20;;
48871;SDS011;36154;51.674;7.824;2024-03-02T05:24:20;0.20;;;0.20;;
48871;SDS011;36154;51.674;7.824;2024-03-02T05:26:45;0.20;;;0.20;;
48871;SDS011;36154;51.674;7.824;2024-03-02T05:29:10;0.20;;;0.20;;
48871;SDS011;36154;51.674;7.824;2024-03-02T05:31:36;0.30;;;0.30;;
48871;SDS011;36154;51.674;7.824;2024-03-02T05:34:01;0.20;;;0.20;;
48871;SDS011;36154;51.674;7.824;2024-03-02T05:36:26;0.20;;;0.20;;
48871;SDS011;36154;51.674;7.824;2024-03-02T05:38:52;0.30;;;0.30;;
48871;SDS011;36154;51.674;7.824;2024-03-02T05:41:17;0.20;;;0.20;;
48871;SDS011;36154;51.674;7.824;2024-03-02T05:43:42;0.25;;;0.25;;
48871;SDS011;36154;51.674;7.824;2024-03-02T05:46:07;0.20;;;0.20;;
48871;SDS011;36154;51.674;7.824;2024-03-02T05:48:33;0.28;;;0.28;;
48871;SDS011;36154;51.674;7.824;2024-03-02T05:50:58;0.30;;;0.30;;
48871;SDS011;36154;51.674;7.824;2024-03-02T05:53:23;1.17;;;0.20;;
48871;SDS011;36154;51.674;7.824;2024-03-02T05:55:49;0.30;;;0.30;;
48871;SDS011;36154;51.674;7.824;2024-03-02T05:58:18;0.20;;;0.20;;
48871;SDS011;36154;51.674;7.824;2024-03-02T06:01:02;0.32;;;0.32;;
48871;SDS011;36154;51.674;7.824;2024-03-02T06:03:28;0.28;;;0.28;;
48871;SDS011;36154;51.674;7.824;2024-03-02T06:05:53;0.40;;;0.20;;
48871;SDS011;36154;51.674;7.824;2024-03-02T06:08:19;0.32;;;0.32;;
48871;SDS011;36154;51.674;7.824;2024-03-02T06:10:44;0.30;;;0.30;;
48871;SDS011;36154;51.674;7.824;2024-03-02T06:13:12;0.30;;;0.30;;
48871;SDS011;36154;51.674;7.824;2024-03-02T06:15:37;0.20;;;0.20;;
48871;SDS011;36154;51.674;7.824;2024-03-02T06:18:03;0.20;;;0.20;;
48871;SDS011;36154;51.674;7.824;2024-03-02T06:20:28;0.35;;;0.20;;
48871;SDS011;36154;51.674;7.824;2024-03-02T06:22:56;0.30;;;0.25;;
48871;SDS011;36154;51.674;7.824;2024-03-02T06:25:21;0.20;;;0.20;;
48871;SDS011;36154;51.674;7.824;2024-03-02T06:27:46;0.20;;;0.20;;
48871;SDS011;36154;51.674;7.824;2024-03-02T06:30:12;0.10;;;0.10;;
48871;SDS011;36154;51.674;7.824;2024-03-02T06:32:37;0.20;;;0.20;;
48871;SDS011;36154;51.674;7.824;2024-03-02T06:35:02;0.25;;;0.10;;
48871;SDS011;36154;51.674;7.824;2024-03-02T06:37:29;0.22;;;0.20;;
48871;SDS011;36154;51.674;7.824;2024-03-02T06:39:55;0.30;;;0.30;;
48871;SDS011;36154;51.674;7.824;2024-03-02T06:42:20;0.10;;;0.10;;
48871;SDS011;36154;51.674;7.824;2024-03-02T06:44:45;0.30;;;0.30;;
48871;SDS011;36154;51.674;7.824;2024-03-02T06:47:10;0.20;;;0.20;;
48871;SDS011;36154;51.674;7.824;2024-03-02T06:49:36;0.20;;;0.20;;
48871;SDS011;36154;51.674;7.824;2024-03-02T06:52:01;0.20;;;0.20;;
48871;SDS011;36154;51.674;7.824;2024-03-02T06:54:27;0.20;;;0.20;;
48871;SDS011;36154;51.674;7.824;2024-03-02T06:56:52;0.20;;;0.20;;
48871;SDS011;36154;51.674;7.824;2024-03-02T06:59:17;0.20;;;0.20;;
48871;SDS011;36154;51.674;7.824;2024-03-02T07:01:42;0.20;;;0.20;;
48871;SDS011;36154;51.674;7.824;2024-03-02T07:04:08;0.45;;;0.28;;
48871;SDS011;36154;51.674;7.824;2024-03-02T07:06:34;0.20;;;0.20;;
48871;SDS011;36154;51.674;7.824;2024-03-02T07:08:59;0.20;;;0.20;;
48871;SDS011;36154;51.674;7.824;2024-03-02T07:11:24;0.28;;;0.22;;
48871;SDS011;36154;51.674;7.824;2024-03-02T07:13:49;0.30;;;0.30;;
48871;SDS011;36154;51.674;7.824;2024-03-02T07:16:15;0.20;;;0.20;;
48871;SDS011;36154;51.674;7.824;2024-03-02T07:18:53;0.25;;;0.20;;
48871;SDS011;36154;51.674;7.824;2024-03-02T07:21:20;0.25;;;0.20;;
48871;SDS011;36154;51.674;7.824;2024-03-02T07:23:47;0.40;;;0.40;;
48871;SDS011;36154;51.674;7.824;2024-03-02T07:26:12;0.20;;;0.20;;
48871;SDS011;36154;51.674;7.824;2024-03-02T07:28:37;0.20;;;0.20;;
48871;SDS011;36154;51.674;7.824;2024-03-02T07:31:04;0.20;;;0.20;;
48871;SDS011;36154;51.674;7.824;2024-03-02T07:33:30;0.25;;;0.25;;
48871;SDS011;36154;51.674;7.824;2024-03-02T07:35:56;0.30;;;0.20;;
48871;SDS011;36154;51.674;7.824;2024-03-02T07:38:22;0.25;;;0.25;;
48871;SDS011;36154;51.674;7.824;2024-03-02T07:40:51;0.40;;;0.17;;
48871;SDS011;36154;51.674;7.824;2024-03-02T07:43:17;0.20;;;0.20;;
48871;SDS011;36154;51.674;7.824;2024-03-02T07:45:43;0.20;;;0.20;;
48871;SDS011;36154;51.674;7.824;2024-03-02T07:48:08;0.20;;;0.20;;
48871;SDS011;36154;51.674;7.824;2024-03-02T07:50:33;0.20;;;0.20;;
48871;SDS011;36154;51.674;7.824;2024-03-02T07:53:00;0.35;;;0.22;;
48871;SDS011;36154;51.674;7.824;2024-03-02T07:55:26;0.30;;;0.30;;
48871;SDS011;36154;51.674;7.824;2024-03-02T07:57:51;1.45;;;0.65;;
48871;SDS011;36154;51.674;7.824;2024-03-02T08:00:16;2.25;;;0.40;;
48871;SDS011;36154;51.674;7.824;2024-03-02T08:02:42;4.32;;;1.23;;
48871;SDS011;36154;51.674;7.824;2024-03-02T08:05:07;18.88;;;3.53;;
48871;SDS011;36154;51.674;7.824;2024-03-02T08:07:33;31.02;;;5.35;;
48871;SDS011;36154;51.674;7.824;2024-03-02T08:09:59;26.65;;;4.22;;
48871;SDS011;36154;51.674;7.824;2024-03-02T08:12:24;11.80;;;3.08;;
48871;SDS011;36154;51.674;7.824;2024-03-02T08:14:49;13.68;;;2.78;;
48871;SDS011;36154;51.674;7.824;2024-03-02T08:17:15;13.32;;;3.20;;
48871;SDS011;36154;51.674;7.824;2024-03-02T08:19:40;11.82;;;2.78;;
48871;SDS011;36154;51.674;7.824;2024-03-02T08:22:06;11.70;;;3.03;;
48871;SDS011;36154;51.674;7.824;2024-03-02T08:24:31;13.95;;;3.08;;
48871;SDS011;36154;51.674;7.824;2024-03-02T08:26:58;12.77;;;2.70;;
48871;SDS011;36154;51.674;7.824;2024-03-02T08:29:24;13.68;;;3.05;;
48871;SDS011;36154;51.674;7.824;2024-03-02T08:31:50;11.40;;;3.03;;
48871;SDS011;36154;51.674;7.824;2024-03-02T08:34:15;12.60;;;2.92;;
48871;SDS011;36154;51.674;7.824;2024-03-02T08:36:40;14.25;;;3.28;;
48871;SDS011;36154;51.674;7.824;2024-03-02T08:39:06;15.10;;;3.53;;
48871;SDS011;36154;51.674;7.824;2024-03-02T08:41:40;15.32;;;4.25;;
48871;SDS011;36154;51.674;7.824;2024-03-02T08:44:06;19.98;;;3.60;;
48871;SDS011;36154;51.674;7.824;2024-03-02T08:46:31;8.05;;;2.40;;
48871;SDS011;36154;51.674;7.824;2024-03-02T08:48:56;4.60;;;2.58;;
48871;SDS011;36154;51.674;7.824;2024-03-02T08:51:22;7.25;;;5.95;;
48871;SDS011;36154;51.674;7.824;2024-03-02T08:53:47;7.75;;;5.78;;
48871;SDS011;36154;51.674;7.824;2024-03-02T08:56:12;7.72;;;5.68;;
48871;SDS011;36154;51.674;7.824;2024-03-02T08:58:38;9.57;;;5.25;;
48871;SDS011;36154;51.674;7.824;2024-03-02T09:01:03;4.50;;;4.10;;
48871;SDS011;36154;51.674;7.824;2024-03-02T09:03:29;3.63;;;3.40;;
48871;SDS011;36154;51.674;7.824;2024-03-02T09:05:54;4.53;;;2.90;;
48871;SDS011;36154;51.674;7.824;2024-03-02T09:08:19;4.88;;;2.40;;
48871;SDS011;36154;51.674;7.824;2024-03-02T09:10:45;2.80;;;2.25;;
48871;SDS011;36154;51.674;7.824;2024-03-02T09:13:10;3.08;;;2.25;;
48871;SDS011;36154;51.674;7.824;2024-03-02T09:15:36;2.50;;;2.30;;
48871;SDS011;36154;51.674;7.824;2024-03-02T09:18:02;2.30;;;2.10;;
48871;SDS011;36154;51.674;7.824;2024-03-02T09:20:28;1.70;;;1.60;;
48871;SDS011;36154;51.674;7.824;2024-03-02T09:22:53;1.63;;;1.52;;
48871;SDS011;36154;51.674;7.824;2024-03-02T09:25:18;2.30;;;1.30;;
48871;SDS011;36154;51.674;7.824;2024-03-02T09:27:44;1.08;;;1.08;;
48871;SDS011;36154;51.674;7.824;2024-03-02T09:30:09;0.90;;;0.90;;
48871;SDS011;36154;51.674;7.824;2024-03-02T09:32:35;0.90;;;0.90;;
48871;SDS011;36154;51.674;7.824;2024-03-02T09:35:01;3.60;;;0.80;;
48871;SDS011;36154;51.674;7.824;2024-03-02T09:37:27;0.70;;;0.70;;
48871;SDS011;36154;51.674;7.824;2024-03-02T09:39:53;0.75;;;0.75;;
48871;SDS011;36154;51.674;7.824;2024-03-02T09:42:19;1.27;;;0.85;;
48871;SDS011;36154;51.674;7.824;2024-03-02T09:44:44;1.60;;;0.80;;
48871;SDS011;36154;51.674;7.824;2024-03-02T09:47:10;0.90;;;0.90;;
48871;SDS011;36154;51.674;7.824;2024-03-02T09:49:35;0.82;;;0.82;;
48871;SDS011;36154;51.674;7.824;2024-03-02T09:52:01;1.15;;;1.13;;
48871;SDS011;36154;51.674;7.824;2024-03-02T09:54:29;0.70;;;0.70;;
48871;SDS011;36154;51.674;7.824;2024-03-02T09:56:55;1.00;;;0.80;;
48871;SDS011;36154;51.674;7.824;2024-03-02T09:59:20;0.60;;;0.60;;
48871;SDS011;36154;51.674;7.824;2024-03-02T10:04:40;5.53;;;1.25;;
48871;SDS011;36154;51.674;7.824;2024-03-02T10:09:33;2.00;;;0.80;;
48871;SDS011;36154;51.674;7.824;2024-03-02T10:12:03;1.90;;;0.80;;
48871;SDS011;36154;51.674;7.824;2024-03-02T10:14:30;1.02;;;0.80;;
48871;SDS011;36154;51.674;7.824;2024-03-02T10:16:55;2.63;;;0.63;;
48871;SDS011;36154;51.674;7.824;2024-03-02T10:19:27;2.33;;;0.80;;
48871;SDS011;36154;51.674;7.824;2024-03-02T10:21:57;4.90;;;1.20;;
48871;SDS011;36154;51.674;7.824;2024-03-02T10:24:23;2.45;;;0.68;;
48871;SDS011;36154;51.674;7.824;2024-03-02T10:26:49;5.32;;;1.10;;
48871;SDS011;36154;51.674;7.824;2024-03-02T10:29:15;3.72;;;0.80;;
48871;SDS011;36154;51.674;7.824;2024-03-02T10:31:41;2.40;;;0.70;;
48871;SDS011;36154;51.674;7.824;2024-03-02T10:34:09;1.42;;;0.60;;
48871;SDS011;36154;51.674;7.824;2024-03-02T10:36:35;0.60;;;0.60;;
48871;SDS011;36154;51.674;7.824;2024-03-02T10:39:01;0.70;;;0.70;;
48871;SDS011;36154;51.674;7.824;2024-03-02T10:41:28;1.00;;;0.73;;
48871;SDS011;36154;51.674;7.824;2024-03-02T10:43:57;1.67;;;0.50;;
48871;SDS011;36154;51.674;7.824;2024-03-02T10:46:35;0.90;;;0.70;;
48871;SDS011;36154;51.674;7.824;2024-03-02T10:49:01;4.45;;;0.70;;
48871;SDS011;36154;51.674;7.824;2024-03-02T10:51:29;2.78;;;0.50;;
48871;SDS011;36154;51.674;7.824;2024-03-02T10:53:57;0.73;;;0.60;;
48871;SDS011;36154;51.674;7.824;2024-03-02T10:56:41;2.92;;;0.52;;
48871;SDS011;36154;51.674;7.824;2024-03-02T11:01:50;3.00;;;0.90;;
48871;SDS011;36154;51.674;7.824;2024-03-02T11:04:16;4.45;;;0.95;;
48871;SDS011;36154;51.674;7.824;2024-03-02T11:06:45;3.03;;;1.00;;
48871;SDS011;36154;51.674;7.824;2024-03-02T11:09:13;0.98;;;0.80;;
48871;SDS011;36154;51.674;7.824;2024-03-02T11:11:40;3.53;;;0.65;;
48871;SDS011;36154;51.674;7.824;2024-03-02T11:14:10;2.65;;;0.98;;
48871;SDS011;36154;51.674;7.824;2024-03-02T11:16:41;0.70;;;0.70;;
48871;SDS011;36154;51.674;7.824;2024-03-02T11:19:07;1.98;;;0.73;;
48871;SDS011;36154;51.674;7.824;2024-03-02T11:21:35;0.70;;;0.47;;
48871;SDS011;36154;51.674;7.824;2024-03-02T11:24:00;5.50;;;0.95;;
48871;SDS011;36154;51.674;7.824;2024-03-02T11:26:48;0.88;;;0.80;;
48871;SDS011;36154;51.674;7.824;2024-03-02T11:32:01;1.08;;;0.80;;
48871;SDS011;36154;51.674;7.824;2024-03-02T11:34:31;1.80;;;0.60;;
48871;SDS011;36154;51.674;7.824;2024-03-02T11:37:03;3.65;;;0.82;;
48871;SDS011;36154;51.674;7.824;2024-03-02T11:39:29;0.88;;;0.80;;
48871;SDS011;36154;51.674;7.824;2024-03-02T11:41:55;0.88;;;0.80;;
48871;SDS011;36154;51.674;7.824;2024-03-02T11:44:22;3.83;;;0.77;;
48871;SDS011;36154;51.674;7.824;2024-03-02T11:47:05;0.88;;;0.80;;
48871;SDS011;36154;51.674;7.824;2024-03-02T11:49:39;0.63;;;0.60;;
48871;SDS011;36154;51.674;7.824;2024-03-02T11:52:06;0.52;;;0.52;;
48871;SDS011;36154;51.674;7.824;2024-03-02T11:54:33;0.40;;;0.40;;
48871;SDS011;36154;51.674;7.824;2024-03-02T11:57:03;0.43;;;0.43;;
48871;SDS011;36154;51.674;7.824;2024-03-02T11:59:29;0.63;;;0.57;;
48871;SDS011;36154;51.674;7.824;2024-03-02T12:01:55;1.02;;;0.60;;
48871;SDS011;36154;51.674;7.824;2024-03-02T12:04:21;0.50;;;0.50;;
48871;SDS011;36154;51.674;7.824;2024-03-02T12:06:49;1.73;;;0.30;;
48871;SDS011;36154;51.674;7.824;2024-03-02T12:09:20;4.80;;;0.57;;
48871;SDS011;36154;51.674;7.824;2024-03-02T12:11:46;1.00;;;0.40;;
48871;SDS011;36154;51.674;7.824;2024-03-02T12:14:11;1.20;;;0.30;;
48871;SDS011;36154;51.674;7.824;2024-03-02T12:16:37;2.00;;;0.38;;
48871;SDS011;36154;51.674;7.824;2024-03-02T12:19:04;0.30;;;0.30;;
48871;SDS011;36154;51.674;7.824;2024-03-02T12:21:30;0.40;;;0.38;;
48871;SDS011;36154;51.674;7.824;2024-03-02T12:23:55;3.65;;;0.40;;
48871;SDS011;36154;51.674;7.824;2024-03-02T12:26:21;0.60;;;0.50;;
48871;SDS011;36154;51.674;7.824;2024-03-02T12:28:49;1.33;;;0.50;;
48871;SDS011;36154;51.674;7.824;2024-03-02T12:31:15;0.38;;;0.38;;
48871;SDS011;36154;51.674;7.824;2024-03-02T12:33:40;0.68;;;0.38;;
48871;SDS011;36154;51.674;7.824;2024-03-02T12:36:09;2.63;;;0.50;;
48871;SDS011;36154;51.674;7.824;2024-03-02T12:38:37;1.30;;;0.30;;
48871;SDS011;36154;51.674;7.824;2024-03-02T12:41:02;23.10;;;2.53;;
48871;SDS011;36154;51.674;7.824;2024-03-02T12:43:30;4.50;;;0.70;;
48871;SDS011;36154;51.674;7.824;2024-03-02T12:45:56;4.60;;;0.95;;
48871;SDS011;36154;51.674;7.824;2024-03-02T12:48:22;5.15;;;0.80;;
48871;SDS011;36154;51.674;7.824;2024-03-02T12:50:48;5.95;;;1.25;;
48871;SDS011;36154;51.674;7.824;2024-03-02T12:53:14;14.30;;;2.42;;
48871;SDS011;36154;51.674;7.824;2024-03-02T12:55:41;18.27;;;4.18;;
48871;SDS011;36154;51.674;7.824;2024-03-02T12:58:06;20.05;;;3.78;;
48871;SDS011;36154;51.674;7.824;2024-03-02T13:00:32;22.20;;;4.40;;
48871;SDS011;36154;51.674;7.824;2024-03-02T13:03:00;24.25;;;4.63;;
48871;SDS011;36154;51.674;7.824;2024-03-02T13:05:31;22.92;;;4.40;;
48871;SDS011;36154;51.674;7.824;2024-03-02T13:07:57;16.00;;;4.28;;
48871;SDS011;36154;51.674;7.824;2024-03-02T13:10:24;17.42;;;3.30;;
48871;SDS011;36154;51.674;7.824;2024-03-02T13:12:49;11.27;;;3.22;;
48871;SDS011;36154;51.674;7.824;2024-03-02T13:15:15;11.32;;;3.00;;
48871;SDS011;36154;51.674;7.824;2024-03-02T13:17:40;10.98;;;2.92;;
48871;SDS011;36154;51.674;7.824;2024-03-02T13:20:06;10.43;;;2.70;;
48871;SDS011;36154;51.674;7.824;2024-03-02T13:22:35;10.75;;;2.80;;
48871;SDS011;36154;51.674;7.824;2024-03-02T13:25:01;7.20;;;2.10;;
48871;SDS011;36154;51.674;7.824;2024-03-02T13:27:28;7.10;;;2.03;;
48871;SDS011;36154;51.674;7.824;2024-03-02T13:29:54;6.00;;;2.00;;
48871;SDS011;36154;51.674;7.824;2024-03-02T13:32:20;5.93;;;1.90;;
48871;SDS011;36154;51.674;7.824;2024-03-02T13:34:48;5.07;;;1.88;;
48871;SDS011;36154;51.674;7.824;2024-03-02T13:37:14;6.25;;;1.52;;
48871;SDS011;36154;51.674;7.824;2024-03-02T13:39:39;5.38;;;1.60;;
48871;SDS011;36154;51.674;7.824;2024-03-02T13:42:07;6.60;;;1.55;;
48871;SDS011;36154;51.674;7.824;2024-03-02T13:44:36;3.30;;;1.40;;
48871;SDS011;36154;51.674;7.824;2024-03-02T13:47:02;3.45;;;1.10;;
48871;SDS011;36154;51.674;7.824;2024-03-02T13:49:28;2.10;;;1.10;;
48871;SDS011;36154;51.674;7.824;2024-03-02T13:51:58;3.10;;;1.10;;
48871;SDS011;36154;51.674;7.824;2024-03-02T13:54:38;3.00;;;1.05;;
48871;SDS011;36154;51.674;7.824;2024-03-02T13:57:04;1.73;;;0.88;;
48871;SDS011;36154;51.674;7.824;2024-03-02T13:59:30;2.03;;;0.88;;
48871;SDS011;36154;51.674;7.824;2024-03-02T14:01:55;1.10;;;0.77;;
48871;SDS011;36154;51.674;7.824;2024-03-02T14:04:21;1.30;;;0.93;;
48871;SDS011;36154;51.674;7.824;2024-03-02T14:06:46;0.95;;;0.80;;
48871;SDS011;36154;51.674;7.824;2024-03-02T14:09:11;1.42;;;0.80;;
48871;SDS011;36154;51.674;7.824;2024-03-02T14:11:36;1.23;;;0.60;;
48871;SDS011;36154;51.674;7.824;2024-03-02T14:14:02;2.53;;;0.80;;
48871;SDS011;36154;51.674;7.824;2024-03-02T14:16:28;2.80;;;0.88;;
48871;SDS011;36154;51.674;7.824;2024-03-02T14:18:53;1.52;;;0.40;;
48871;SDS011;36154;51.674;7.824;2024-03-02T14:21:18;0.85;;;0.73;;
48871;SDS011;36154;51.674;7.824;2024-03-02T14:23:43;1.00;;;0.52;;
48871;SDS011;36154;51.674;7.824;2024-03-02T14:26:09;0.53;;;0.50;;
48871;SDS011;36154;51.674;7.824;2024-03-02T14:28:34;0.82;;;0.50;;
48871;SDS011;36154;51.674;7.824;2024-03-02T14:30:59;0.40;;;0.40;;
48871;SDS011;36154;51.674;7.824;2024-03-02T14:33:26;0.50;;;0.40;;
48871;SDS011;36154;51.674;7.824;2024-03-02T14:35:51;0.65;;;0.30;;
48871;SDS011;36154;51.674;7.824;2024-03-02T14:38:16;0.30;;;0.30;;
48871;SDS011;36154;51.674;7.824;2024-03-02T14:40:42;0.40;;;0.30;;
48871;SDS011;36154;51.674;7.824;2024-03-02T14:43:08;0.45;;;0.32;;
48871;SDS011;36154;51.674;7.824;2024-03-02T14:45:33;0.75;;;0.40;;
48871;SDS011;36154;51.674;7.824;2024-03-02T14:47:58;0.40;;;0.30;;
48871;SDS011;36154;51.674;7.824;2024-03-02T14:50:25;0.65;;;0.30;;
48871;SDS011;36154;51.674;7.824;2024-03-02T14:52:53;0.57;;;0.22;;
48871;SDS011;36154;51.674;7.824;2024-03-02T14:55:18;0.28;;;0.28;;